Time;durP1;ratioP1;P1;durP2;ratioP2;P2;SDS_P1;SDS_P2;PMS_P1;PMS_P2;Temp;Humidity;BMP_temperature;BMP_pressure;BME280_temperature;BME280_humidity;BME280_pressure;Samples;Min_cycle;Max_cycle;Signal;HPM_P1;HPM_P2
2022/03/06 00:01:14;;;;;;;15.50;7.87;;;3.40;99.90;;;;;;4981256;28;20528;-67
2022/03/06 00:03:40;;;;;;;13.03;6.70;;;3.30;99.90;;;;;;4988655;28;20461;-67
2022/03/06 00:06:07;;;;;;;12.87;8.30;;;2.90;99.90;;;;;;4987354;28;20513;-67
2022/03/06 00:08:34;;;;;;;8.00;5.83;;;3.10;99.90;;;;;;4982961;28;21081;-69
2022/03/06 00:11:00;;;;;;;10.97;6.90;;;3.10;99.90;;;;;;4982278;28;20551;-69
2022/03/06 00:13:29;;;;;;;11.50;7.30;;;3.20;99.90;;;;;;4987235;28;20469;-70
2022/03/06 00:15:55;;;;;;;17.57;7.20;;;3.30;99.90;;;;;;4984348;28;20472;-69
2022/03/06 00:18:22;;;;;;;11.27;7.80;;;3.20;99.90;;;;;;4983709;28;20492;-69
2022/03/06 00:20:49;;;;;;;14.87;5.63;;;3.20;99.90;;;;;;4985039;28;20462;-69
2022/03/06 00:23:15;;;;;;;15.03;8.27;;;3.10;99.90;;;;;;4996043;28;20495;-69
2022/03/06 00:25:42;;;;;;;10.90;6.50;;;3.10;99.90;;;;;;4993707;28;20500;-68
2022/03/06 00:28:09;;;;;;;6.77;4.37;;;3.10;99.90;;;;;;4998400;28;20501;-69
2022/03/06 00:30:37;;;;;;;22.87;8.03;;;2.90;99.90;;;;;;4999095;28;20535;-69
2022/03/06 00:33:05;;;;;;;15.23;7.20;;;2.90;99.90;;;;;;4997559;28;20806;-69
2022/03/06 00:35:32;;;;;;;7.50;6.13;;;2.80;99.90;;;;;;4991826;28;20500;-69
2022/03/06 00:37:59;;;;;;;7.50;4.47;;;2.70;99.90;;;;;;4998971;28;21278;-69
2022/03/06 00:40:26;;;;;;;7.10;5.87;;;2.60;99.90;;;;;;4997196;28;20520;-68
2022/03/06 00:42:53;;;;;;;11.97;7.90;;;2.60;99.90;;;;;;4999309;28;20454;-69
2022/03/06 00:45:19;;;;;;;10.80;6.47;;;2.70;99.90;;;;;;4994093;28;20556;-69
2022/03/06 00:47:47;;;;;;;13.20;6.40;;;2.70;99.90;;;;;;4997331;28;20492;-69
2022/03/06 00:50:14;;;;;;;10.23;6.80;;;2.70;99.90;;;;;;4995151;28;20627;-68
2022/03/06 00:52:41;;;;;;;25.17;6.23;;;2.70;99.90;;;;;;4997598;28;20480;-69
2022/03/06 00:55:09;;;;;;;9.40;6.70;;;2.70;99.90;;;;;;4998135;28;20485;-69
2022/03/06 00:57:36;;;;;;;14.60;6.20;;;2.60;99.90;;;;;;4992412;28;20464;-69
2022/03/06 01:00:05;;;;;;;17.13;8.07;;;2.60;99.90;;;;;;4987131;28;20497;-69
2022/03/06 01:02:31;;;;;;;17.10;6.30;;;2.60;99.90;;;;;;4989961;28;20525;-68
2022/03/06 01:04:59;;;;;;;12.30;6.33;;;2.60;99.90;;;;;;4991018;28;20445;-69
2022/03/06 01:07:26;;;;;;;20.67;8.13;;;2.60;99.90;;;;;;5005978;28;20509;-69
2022/03/06 01:09:53;;;;;;;12.80;7.70;;;2.40;99.90;;;;;;4992175;28;20970;-69
2022/03/06 01:12:20;;;;;;;10.30;5.23;;;2.60;99.90;;;;;;4996637;28;20432;-69
2022/03/06 01:14:48;;;;;;;8.03;5.37;;;2.70;99.90;;;;;;4991100;28;20493;-69
2022/03/06 01:17:15;;;;;;;13.70;6.73;;;2.60;99.90;;;;;;4997380;28;20488;-69
2022/03/06 01:19:42;;;;;;;14.73;6.37;;;2.50;99.90;;;;;;4994804;28;20967;-69
2022/03/06 01:22:10;;;;;;;7.60;6.07;;;2.50;99.90;;;;;;4996598;28;20463;-69
2022/03/06 01:24:37;;;;;;;8.50;5.40;;;2.50;99.90;;;;;;4992946;28;20432;-69
2022/03/06 01:27:04;;;;;;;11.03;6.80;;;2.50;99.90;;;;;;4996071;28;20900;-69
2022/03/06 01:29:31;;;;;;;11.67;6.93;;;2.30;99.90;;;;;;4985573;28;21009;-69
2022/03/06 01:31:57;;;;;;;10.13;6.40;;;2.20;99.90;;;;;;4989608;28;20787;-69
2022/03/06 01:34:24;;;;;;;10.83;6.80;;;2.10;99.90;;;;;;4991711;28;20801;-69
2022/03/06 01:36:51;;;;;;;11.40;6.57;;;2.20;99.90;;;;;;4994286;28;21036;-69
2022/03/06 01:39:19;;;;;;;17.50;6.83;;;2.20;99.90;;;;;;4997496;28;20465;-69
2022/03/06 01:41:45;;;;;;;12.00;6.47;;;2.20;99.90;;;;;;5000794;28;20918;-69
2022/03/06 01:44:13;;;;;;;18.10;7.10;;;2.20;99.90;;;;;;4986461;28;20519;-69
2022/03/06 01:46:41;;;;;;;13.47;6.23;;;2.20;99.90;;;;;;4990200;28;20981;-70
2022/03/06 01:49:07;;;;;;;12.03;5.30;;;2.10;99.90;;;;;;4991961;28;21082;-69
2022/03/06 01:51:34;;;;;;;13.20;4.90;;;2.20;99.90;;;;;;4998177;28;20494;-69
2022/03/06 01:54:05;;;;;;;11.40;8.03;;;2.20;99.90;;;;;;4997982;28;20473;-72
2022/03/06 01:56:33;;;;;;;14.93;7.23;;;2.20;99.90;;;;;;4988104;28;20452;-69
2022/03/06 01:59:01;;;;;;;8.13;6.27;;;2.20;99.90;;;;;;4992567;28;20836;-70
2022/03/06 02:01:28;;;;;;;11.20;5.83;;;2.10;99.90;;;;;;4991253;28;20954;-70
2022/03/06 02:04:28;;;;;;;11.90;6.40;;;2.00;99.90;;;;;;4995425;28;20457;-71
2022/03/06 02:06:55;;;;;;;12.07;5.50;;;2.00;99.90;;;;;;4965444;28;21891;-70
2022/03/06 02:09:22;;;;;;;19.90;6.57;;;2.20;99.90;;;;;;4976333;28;20824;-70
2022/03/06 02:14:30;;;;;;;8.07;6.60;;;2.00;99.90;;;;;;4981238;28;20481;-68
2022/03/06 02:16:57;;;;;;;16.43;8.67;;;2.00;99.90;;;;;;4980796;28;20585;-69
2022/03/06 02:19:24;;;;;;;6.00;5.13;;;2.00;99.90;;;;;;4983260;28;20858;-70
2022/03/06 02:21:51;;;;;;;17.17;6.47;;;2.10;99.90;;;;;;4981447;28;20893;-69
2022/03/06 02:24:18;;;;;;;14.67;8.50;;;2.20;99.90;;;;;;4978123;28;20548;-70
2022/03/06 02:26:45;;;;;;;10.30;6.70;;;2.20;99.90;;;;;;4981817;28;20782;-69
2022/03/06 02:29:11;;;;;;;15.00;8.50;;;2.10;99.90;;;;;;4982521;28;20847;-70
2022/03/06 02:31:38;;;;;;;14.67;7.10;;;1.90;99.90;;;;;;4985932;28;21004;-70
2022/03/06 02:34:06;;;;;;;11.73;7.70;;;1.90;99.90;;;;;;4980412;28;20473;-69
2022/03/06 02:36:33;;;;;;;8.33;5.50;;;1.90;99.90;;;;;;4983485;28;20655;-70
2022/03/06 02:39:01;;;;;;;15.17;9.40;;;1.80;99.90;;;;;;4985418;28;20902;-70
2022/03/06 02:41:36;;;;;;;15.50;7.50;;;1.80;99.90;;;;;;4984435;28;20553;-70
2022/03/06 02:44:02;;;;;;;20.43;7.70;;;1.80;99.90;;;;;;4987855;28;20468;-70
2022/03/06 02:46:30;;;;;;;10.13;6.17;;;1.60;99.90;;;;;;4987610;28;20485;-70
2022/03/06 02:48:57;;;;;;;11.20;5.50;;;1.50;99.90;;;;;;4989102;28;20443;-69
2022/03/06 02:51:23;;;;;;;9.87;5.80;;;1.50;99.90;;;;;;4979204;28;20950;-70
2022/03/06 02:53:50;;;;;;;12.83;6.50;;;1.50;99.90;;;;;;4988658;28;20489;-69
2022/03/06 02:56:18;;;;;;;13.40;7.87;;;1.50;99.90;;;;;;4988106;28;20485;-70
2022/03/06 02:58:45;;;;;;;17.50;7.37;;;1.50;99.90;;;;;;4985656;28;20457;-68
2022/03/06 03:01:12;;;;;;;13.30;6.00;;;1.50;99.90;;;;;;4984795;28;20999;-70
2022/03/06 03:03:39;;;;;;;12.20;5.87;;;1.70;99.90;;;;;;4982057;28;20457;-70
2022/03/06 03:06:07;;;;;;;13.70;6.67;;;1.80;99.90;;;;;;4976551;28;20450;-70
2022/03/06 03:08:34;;;;;;;17.77;6.80;;;1.80;99.90;;;;;;4990377;28;20476;-70
2022/03/06 03:11:03;;;;;;;15.93;5.77;;;1.80;99.90;;;;;;4988345;28;21159;-70
2022/03/06 03:13:31;;;;;;;20.73;8.20;;;1.90;99.90;;;;;;4981421;28;20465;-69
2022/03/06 03:15:58;;;;;;;11.23;6.80;;;1.90;99.90;;;;;;4991076;28;20477;-69
2022/03/06 03:18:25;;;;;;;13.40;5.20;;;1.90;99.90;;;;;;4989475;28;21035;-69
2022/03/06 03:20:53;;;;;;;10.70;5.60;;;1.90;99.90;;;;;;4983123;28;20465;-70
2022/03/06 03:23:19;;;;;;;11.70;4.97;;;1.90;99.90;;;;;;4986010;28;20644;-70
2022/03/06 03:25:46;;;;;;;11.80;6.23;;;2.00;99.90;;;;;;4987942;28;20476;-70
2022/03/06 03:28:13;;;;;;;9.90;5.27;;;1.90;99.90;;;;;;4987134;28;21049;-70
2022/03/06 03:30:41;;;;;;;14.27;7.77;;;1.80;99.90;;;;;;4980618;28;21009;-70
2022/03/06 03:33:08;;;;;;;8.00;4.17;;;2.00;99.90;;;;;;4981394;28;20453;-69
2022/03/06 03:35:35;;;;;;;10.73;6.77;;;1.90;99.90;;;;;;4983195;28;21001;-70
2022/03/06 03:38:01;;;;;;;8.93;4.83;;;1.70;99.90;;;;;;4985751;28;20557;-70
2022/03/06 03:40:28;;;;;;;8.20;6.10;;;1.70;99.90;;;;;;4982714;28;21001;-70
2022/03/06 03:42:55;;;;;;;13.63;6.23;;;1.80;99.90;;;;;;4982146;28;20524;-70
2022/03/06 03:45:22;;;;;;;8.00;6.00;;;1.90;99.90;;;;;;4983131;28;20565;-70
2022/03/06 03:47:50;;;;;;;9.23;5.90;;;2.00;99.90;;;;;;4988739;28;20494;-70
2022/03/06 03:50:16;;;;;;;4.93;3.67;;;1.90;99.90;;;;;;4982403;28;20458;-69
2022/03/06 03:52:43;;;;;;;12.97;6.17;;;1.90;99.90;;;;;;4987550;28;20792;-69
2022/03/06 03:55:10;;;;;;;14.47;6.63;;;1.90;99.90;;;;;;4982849;28;20485;-69
2022/03/06 03:57:37;;;;;;;12.40;4.87;;;2.00;99.90;;;;;;4982010;28;20476;-69
2022/03/06 04:00:05;;;;;;;12.43;5.10;;;2.10;99.90;;;;;;4983961;28;20988;-69
2022/03/06 04:02:32;;;;;;;12.40;6.90;;;2.20;99.90;;;;;;4984004;28;20513;-69
2022/03/06 04:05:00;;;;;;;12.90;6.97;;;2.20;99.90;;;;;;4986277;28;20466;-69
2022/03/06 04:07:27;;;;;;;10.10;5.90;;;2.20;99.90;;;;;;4985097;28;20536;-69
2022/03/06 04:09:54;;;;;;;9.37;4.80;;;2.20;99.90;;;;;;4988937;28;20507;-69
2022/03/06 04:12:20;;;;;;;17.73;7.50;;;2.10;99.90;;;;;;4987492;28;20455;-69
2022/03/06 04:14:47;;;;;;;9.97;5.90;;;2.10;99.90;;;;;;4982504;28;20927;-69
2022/03/06 04:17:14;;;;;;;8.53;4.77;;;2.20;99.90;;;;;;4982408;28;20468;-69
2022/03/06 04:19:40;;;;;;;11.87;5.40;;;2.20;99.90;;;;;;4982797;28;20448;-69
2022/03/06 04:22:08;;;;;;;15.60;5.20;;;2.30;99.90;;;;;;4979658;28;20465;-69
2022/03/06 04:24:35;;;;;;;8.13;4.47;;;2.20;99.90;;;;;;4983541;28;20892;-69
2022/03/06 04:27:02;;;;;;;9.73;7.13;;;2.10;99.90;;;;;;4982287;28;20541;-69
2022/03/06 04:29:30;;;;;;;13.43;6.50;;;2.10;99.90;;;;;;4984548;28;20461;-69
2022/03/06 04:31:57;;;;;;;10.77;6.07;;;2.00;99.90;;;;;;4983157;28;20522;-69
2022/03/06 04:34:24;;;;;;;9.90;4.80;;;1.90;99.90;;;;;;4975236;28;20531;-70
2022/03/06 04:36:50;;;;;;;12.10;8.37;;;2.10;99.90;;;;;;4981972;28;21193;-70
2022/03/06 04:39:18;;;;;;;9.67;5.07;;;2.20;99.90;;;;;;4983825;28;21247;-69
2022/03/06 04:41:45;;;;;;;6.73;4.53;;;2.20;99.90;;;;;;4984269;28;20508;-69
2022/03/06 04:44:13;;;;;;;9.63;4.70;;;2.20;99.90;;;;;;4983488;28;20462;-69
2022/03/06 04:46:40;;;;;;;13.50;5.53;;;2.30;99.90;;;;;;4981644;28;20483;-69
2022/03/06 04:49:06;;;;;;;15.87;5.30;;;2.20;99.90;;;;;;4981825;28;21081;-69
2022/03/06 04:51:33;;;;;;;8.40;6.30;;;2.10;99.90;;;;;;4977964;28;20460;-69
2022/03/06 04:54:00;;;;;;;11.33;8.10;;;2.00;99.90;;;;;;4982076;28;20468;-69
2022/03/06 04:56:29;;;;;;;9.63;5.50;;;2.00;99.90;;;;;;4983564;28;20487;-69
2022/03/06 04:58:56;;;;;;;12.50;6.60;;;2.10;99.90;;;;;;4983032;28;20533;-69
2022/03/06 05:01:23;;;;;;;10.13;5.57;;;2.20;99.90;;;;;;4975840;28;20458;-69
2022/03/06 05:03:49;;;;;;;8.07;5.70;;;2.20;99.90;;;;;;4981038;28;20473;-70
2022/03/06 05:06:16;;;;;;;8.77;5.97;;;2.10;99.90;;;;;;4983142;28;20450;-69
2022/03/06 05:08:42;;;;;;;11.90;4.50;;;2.00;99.90;;;;;;4982982;28;20461;-70
2022/03/06 05:11:09;;;;;;;9.00;6.17;;;1.80;99.90;;;;;;4979336;28;20556;-69
2022/03/06 05:13:37;;;;;;;5.40;4.37;;;1.70;99.90;;;;;;4981417;28;20472;-70
2022/03/06 05:16:05;;;;;;;5.73;4.30;;;1.70;99.90;;;;;;4979647;28;20481;-70
2022/03/06 05:18:31;;;;;;;7.57;4.47;;;1.60;99.90;;;;;;4984039;28;20458;-69
2022/03/06 05:20:58;;;;;;;5.57;4.40;;;1.50;99.90;;;;;;4982762;28;20485;-69
2022/03/06 05:23:25;;;;;;;10.90;7.73;;;1.70;99.90;;;;;;4986875;28;20489;-69
2022/03/06 05:25:54;;;;;;;7.37;3.57;;;1.60;99.90;;;;;;4978461;28;20584;-70
2022/03/06 05:28:21;;;;;;;9.00;5.20;;;1.60;99.90;;;;;;4979768;28;20568;-70
2022/03/06 05:30:50;;;;;;;7.63;5.17;;;1.60;99.90;;;;;;4982589;28;20839;-70
2022/03/06 05:33:19;;;;;;;5.83;4.10;;;1.70;99.90;;;;;;4977468;28;20469;-69
2022/03/06 05:35:46;;;;;;;12.77;5.80;;;1.70;99.90;;;;;;4980972;28;20552;-69
2022/03/06 05:38:13;;;;;;;12.20;6.20;;;1.50;99.90;;;;;;4987262;28;20548;-69
2022/03/06 05:40:41;;;;;;;13.97;6.47;;;1.40;99.90;;;;;;4982787;28;21059;-70
2022/03/06 05:43:07;;;;;;;7.43;4.30;;;1.40;99.90;;;;;;4983154;28;20528;-70
2022/03/06 05:45:34;;;;;;;8.10;5.10;;;1.40;99.90;;;;;;4988535;28;20504;-70
2022/03/06 05:48:02;;;;;;;6.60;5.57;;;1.50;99.90;;;;;;4981570;28;20517;-69
2022/03/06 05:50:28;;;;;;;8.37;5.30;;;1.40;99.90;;;;;;4982589;28;20436;-69
2022/03/06 05:52:55;;;;;;;7.03;5.47;;;1.40;99.90;;;;;;4987404;28;20470;-69
2022/03/06 05:55:22;;;;;;;11.10;5.40;;;1.40;99.90;;;;;;4986005;28;20543;-70
2022/03/06 05:57:48;;;;;;;10.67;5.97;;;1.20;99.90;;;;;;4985964;28;20573;-69
2022/03/06 06:00:17;;;;;;;11.33;5.83;;;1.10;99.90;;;;;;4985253;28;21048;-69
2022/03/06 06:02:45;;;;;;;6.90;4.73;;;1.10;99.90;;;;;;4984988;28;20467;-70
2022/03/06 06:05:13;;;;;;;9.27;5.40;;;1.20;99.90;;;;;;4985793;28;20962;-69
2022/03/06 06:07:39;;;;;;;14.70;7.70;;;1.30;99.90;;;;;;4980701;28;21258;-70
2022/03/06 06:10:07;;;;;;;12.00;6.53;;;1.30;99.90;;;;;;4981018;28;20470;-70
2022/03/06 06:12:34;;;;;;;9.00;5.20;;;1.30;99.90;;;;;;4979551;28;20965;-70
2022/03/06 06:15:01;;;;;;;9.37;5.93;;;1.20;99.90;;;;;;4979380;28;20792;-70
2022/03/06 06:17:27;;;;;;;11.47;6.53;;;1.30;99.90;;;;;;4982894;28;20555;-70
2022/03/06 06:19:54;;;;;;;8.43;4.77;;;1.40;99.90;;;;;;4977794;28;20460;-70
2022/03/06 06:22:22;;;;;;;7.63;5.13;;;1.50;99.90;;;;;;4986718;28;20489;-69
2022/03/06 06:24:49;;;;;;;13.57;5.60;;;1.60;99.90;;;;;;4992620;28;20454;-70
2022/03/06 06:27:15;;;;;;;6.40;5.07;;;1.60;99.90;;;;;;4988762;28;20489;-70
2022/03/06 06:29:42;;;;;;;11.50;5.47;;;1.70;99.90;;;;;;4992734;28;20469;-70
2022/03/06 06:32:09;;;;;;;7.70;4.63;;;1.70;99.90;;;;;;4991278;28;20458;-70
2022/03/06 06:34:35;;;;;;;11.70;6.13;;;1.70;99.90;;;;;;4992896;28;20559;-69
2022/03/06 06:37:02;;;;;;;9.37;5.30;;;1.70;99.90;;;;;;4994180;28;20606;-69
2022/03/06 06:39:30;;;;;;;9.90;5.87;;;1.80;99.90;;;;;;4993993;28;21059;-70
2022/03/06 06:41:58;;;;;;;8.27;4.80;;;2.00;99.90;;;;;;4990932;28;21323;-70
2022/03/06 06:44:25;;;;;;;7.70;5.40;;;2.30;99.90;;;;;;4993378;28;20472;-70
2022/03/06 06:46:52;;;;;;;12.20;5.60;;;2.40;99.90;;;;;;4989939;28;20525;-70
2022/03/06 06:49:19;;;;;;;10.00;5.37;;;2.50;99.90;;;;;;4995054;28;20451;-70
2022/03/06 06:51:45;;;;;;;12.53;6.70;;;2.50;99.90;;;;;;4995407;28;20514;-70
2022/03/06 06:54:13;;;;;;;8.77;6.40;;;2.50;99.90;;;;;;4989133;28;20481;-70
2022/03/06 06:56:41;;;;;;;20.30;6.80;;;2.50;99.90;;;;;;4996532;28;20595;-70
2022/03/06 06:59:08;;;;;;;10.73;5.37;;;2.40;99.90;;;;;;4995030;28;20595;-70
2022/03/06 07:01:35;;;;;;;18.07;6.87;;;2.40;99.90;;;;;;4990511;28;20558;-70
2022/03/06 07:04:03;;;;;;;19.70;5.37;;;2.40;99.90;;;;;;4991578;28;20464;-71
2022/03/06 07:06:29;;;;;;;7.93;5.97;;;2.40;99.90;;;;;;4981876;28;21321;-72
2022/03/06 07:08:56;;;;;;;9.67;5.90;;;2.40;99.90;;;;;;4989480;28;20523;-70
2022/03/06 07:11:23;;;;;;;11.40;5.43;;;2.30;99.90;;;;;;4993277;28;20462;-70
2022/03/06 07:13:51;;;;;;;7.43;5.07;;;2.20;99.90;;;;;;4991491;28;20466;-70
2022/03/06 07:16:17;;;;;;;9.10;5.37;;;2.10;99.90;;;;;;4991011;28;20976;-71
2022/03/06 07:18:44;;;;;;;6.57;4.50;;;2.20;99.90;;;;;;4991197;28;21839;-70
2022/03/06 07:21:11;;;;;;;12.77;6.50;;;2.30;99.90;;;;;;4981756;28;20493;-71
2022/03/06 07:23:38;;;;;;;10.27;4.83;;;2.30;99.90;;;;;;4989733;28;20462;-70
2022/03/06 07:26:04;;;;;;;15.20;5.60;;;2.10;99.90;;;;;;4989439;28;20494;-70
2022/03/06 07:28:31;;;;;;;6.10;5.00;;;2.20;99.90;;;;;;4989168;28;20465;-74
2022/03/06 07:30:59;;;;;;;8.03;5.03;;;2.40;99.90;;;;;;4988265;28;20458;-70
2022/03/06 07:33:26;;;;;;;9.70;5.13;;;2.60;99.90;;;;;;4979364;28;20469;-69
2022/03/06 07:35:53;;;;;;;11.20;5.77;;;2.80;99.90;;;;;;4988535;28;20453;-70
2022/03/06 07:38:19;;;;;;;10.83;4.20;;;3.00;99.90;;;;;;4994335;28;20480;-69
2022/03/06 07:40:46;;;;;;;10.10;5.50;;;3.10;99.90;;;;;;4986655;28;20470;-70
2022/03/06 07:43:13;;;;;;;10.57;6.40;;;2.90;99.90;;;;;;4988030;28;20519;-71
2022/03/06 07:45:40;;;;;;;7.17;4.30;;;2.80;99.90;;;;;;4991663;28;20461;-70
2022/03/06 07:48:08;;;;;;;7.90;6.13;;;2.40;99.90;;;;;;4987668;28;20517;-71
2022/03/06 07:50:35;;;;;;;13.27;5.10;;;2.30;99.90;;;;;;4992034;28;20440;-70
2022/03/06 07:53:01;;;;;;;7.00;4.63;;;2.50;99.90;;;;;;4989511;28;21022;-70
2022/03/06 07:55:28;;;;;;;12.97;6.30;;;2.50;99.90;;;;;;4986751;28;20514;-70
2022/03/06 07:57:55;;;;;;;9.00;5.60;;;2.80;99.90;;;;;;4989296;28;21046;-70
2022/03/06 08:00:22;;;;;;;8.33;4.43;;;3.10;99.90;;;;;;4989148;28;20499;-69
2022/03/06 08:02:48;;;;;;;6.27;3.00;;;3.40;99.90;;;;;;4991982;28;20481;-69
2022/03/06 08:05:16;;;;;;;12.47;5.63;;;3.30;99.90;;;;;;4993488;28;20454;-70
2022/03/06 08:07:43;;;;;;;7.63;6.47;;;3.10;99.90;;;;;;4992096;28;20485;-69
2022/03/06 08:10:10;;;;;;;14.33;5.97;;;3.00;99.90;;;;;;4988049;28;20543;-70
2022/03/06 08:12:37;;;;;;;11.97;6.23;;;3.20;99.90;;;;;;4986419;28;20810;-70
2022/03/06 08:15:05;;;;;;;6.13;4.70;;;3.70;99.90;;;;;;4978579;28;20489;-70
2022/03/06 08:17:31;;;;;;;21.07;5.70;;;3.90;99.90;;;;;;4986163;28;20469;-70
2022/03/06 08:19:58;;;;;;;11.00;5.47;;;4.20;99.90;;;;;;4977370;28;20642;-69
2022/03/06 08:22:26;;;;;;;10.03;6.20;;;4.20;99.90;;;;;;4983301;28;20462;-71
2022/03/06 08:24:54;;;;;;;8.20;4.83;;;4.20;99.90;;;;;;4978699;28;20461;-70
2022/03/06 08:27:22;;;;;;;7.90;5.50;;;4.30;99.90;;;;;;4971602;28;20465;-71
2022/03/06 08:29:49;;;;;;;6.07;4.40;;;4.40;99.90;;;;;;4977422;28;20477;-70
2022/03/06 08:32:16;;;;;;;9.80;4.70;;;4.50;99.90;;;;;;4981712;28;20808;-70
2022/03/06 08:34:43;;;;;;;9.33;6.10;;;4.30;99.90;;;;;;4983570;28;21034;-70
2022/03/06 08:37:10;;;;;;;21.30;7.53;;;4.70;99.90;;;;;;4987164;28;21167;-69
2022/03/06 08:39:38;;;;;;;10.47;6.43;;;4.90;99.90;;;;;;4981478;28;20469;-69
2022/03/06 08:42:05;;;;;;;8.80;5.73;;;5.50;99.90;;;;;;4989076;28;20830;-69
2022/03/06 08:44:32;;;;;;;6.80;4.90;;;5.60;99.90;;;;;;4976594;28;20455;-69
2022/03/06 08:46:59;;;;;;;9.53;7.37;;;6.20;99.90;;;;;;4987546;28;20471;-70
2022/03/06 08:49:25;;;;;;;10.63;7.00;;;6.60;99.90;;;;;;4985322;28;20436;-70
2022/03/06 08:51:52;;;;;;;16.60;9.63;;;7.50;99.90;;;;;;4985772;28;20470;-70
2022/03/06 08:54:19;;;;;;;10.23;6.43;;;8.50;99.90;;;;;;4979853;28;20441;-70
2022/03/06 08:56:47;;;;;;;7.33;5.10;;;8.40;99.90;;;;;;4979090;28;20481;-69
2022/03/06 08:59:14;;;;;;;8.53;7.17;;;8.80;99.90;;;;;;4974315;28;20473;-69
2022/03/06 09:01:41;;;;;;;10.20;6.07;;;8.90;99.90;;;;;;4976220;28;20462;-70
2022/03/06 09:04:07;;;;;;;9.60;5.97;;;8.60;99.90;;;;;;4984545;28;21263;-70
2022/03/06 09:06:34;;;;;;;9.40;6.33;;;9.20;99.90;;;;;;4978276;28;20966;-69
2022/03/06 09:09:01;;;;;;;12.70;6.00;;;9.40;99.40;;;;;;4980426;28;20450;-70
2022/03/06 09:11:27;;;;;;;9.70;7.30;;;9.90;97.10;;;;;;4986535;28;20445;-69
2022/03/06 09:13:55;;;;;;;9.70;6.03;;;10.50;95.40;;;;;;4984876;28;20501;-70
2022/03/06 09:16:22;;;;;;;8.37;5.40;;;9.90;95.30;;;;;;4979553;28;20562;-70
2022/03/06 09:18:49;;;;;;;8.20;5.23;;;10.20;93.70;;;;;;4980729;28;20485;-70
2022/03/06 09:21:16;;;;;;;11.97;7.03;;;10.00;93.40;;;;;;4970589;28;20476;-69
2022/03/06 09:23:42;;;;;;;12.13;7.83;;;10.10;92.80;;;;;;4973900;28;20523;-69
2022/03/06 09:26:09;;;;;;;8.60;5.10;;;10.20;93.10;;;;;;4981972;28;20458;-69
2022/03/06 09:28:36;;;;;;;7.87;6.20;;;10.80;92.20;;;;;;4979819;28;20541;-70
2022/03/06 09:31:04;;;;;;;10.13;7.40;;;10.80;89.90;;;;;;4989592;28;20547;-70
2022/03/06 09:33:30;;;;;;;10.03;6.07;;;10.90;91.30;;;;;;4983900;28;20466;-70
2022/03/06 09:35:57;;;;;;;10.17;6.80;;;12.20;88.00;;;;;;4985134;28;20465;-70
2022/03/06 09:38:24;;;;;;;14.10;7.47;;;12.50;82.80;;;;;;4985769;28;20548;-69
2022/03/06 09:40:54;;;;;;;8.57;6.70;;;12.60;82.10;;;;;;4985166;28;20470;-69
2022/03/06 09:43:21;;;;;;;9.57;6.30;;;12.90;79.00;;;;;;4978795;28;20462;-70
2022/03/06 09:45:49;;;;;;;10.93;7.87;;;13.20;80.20;;;;;;4978885;28;20948;-71
2022/03/06 09:48:18;;;;;;;11.10;8.50;;;14.50;73.40;;;;;;4981768;28;20638;-70
2022/03/06 09:50:45;;;;;;;11.97;8.10;;;14.10;70.20;;;;;;4979677;28;20961;-69
2022/03/06 09:53:12;;;;;;;10.10;7.30;;;14.30;70.60;;;;;;4976777;28;20605;-69
2022/03/06 09:55:38;;;;;;;14.33;6.70;;;12.80;70.20;;;;;;4976426;28;20711;-70
2022/03/06 09:58:05;;;;;;;13.53;7.57;;;13.40;72.10;;;;;;4978570;28;20923;-70
2022/03/06 10:00:32;;;;;;;12.27;7.37;;;14.10;68.40;;;;;;4982949;28;20461;-70
2022/03/06 10:03:01;;;;;;;14.80;9.37;;;14.40;67.10;;;;;;4969569;28;21177;-71
2022/03/06 10:05:34;;;;;;;11.50;8.10;;;15.00;66.50;;;;;;4968988;28;20478;-69
2022/03/06 10:08:19;;;;;;;12.43;8.90;;;15.40;64.40;;;;;;4978787;28;20493;-70
2022/03/06 10:10:46;;;;;;;15.50;9.90;;;14.90;59.80;;;;;;4980637;28;20851;-69
2022/03/06 10:13:32;;;;;;;10.70;7.80;;;14.50;63.30;;;;;;4979502;28;20473;-70
2022/03/06 10:16:04;;;;;;;21.27;8.53;;;14.90;62.80;;;;;;4967135;28;20680;-70
2022/03/06 10:18:32;;;;;;;12.83;9.40;;;15.80;61.30;;;;;;4977942;28;20578;-69
2022/03/06 10:21:19;;;;;;;9.90;7.73;;;15.30;57.80;;;;;;4975333;28;20465;-69
2022/03/06 10:23:47;;;;;;;10.40;7.90;;;15.30;58.30;;;;;;4977196;28;20899;-69
2022/03/06 10:26:15;;;;;;;9.43;6.03;;;15.60;57.90;;;;;;4981566;28;20493;-69
2022/03/06 10:28:47;;;;;;;11.97;7.00;;;15.50;57.70;;;;;;4979049;28;20496;-69
2022/03/06 10:31:15;;;;;;;15.70;7.27;;;14.50;57.50;;;;;;4983819;28;20465;-70
2022/03/06 10:33:41;;;;;;;11.77;7.17;;;15.10;57.60;;;;;;4983410;28;20564;-70
2022/03/06 10:36:12;;;;;;;11.80;6.80;;;14.60;57.10;;;;;;4981928;28;20461;-69
2022/03/06 10:38:39;;;;;;;10.97;7.10;;;15.40;57.80;;;;;;4976915;28;20874;-70
2022/03/06 10:41:13;;;;;;;10.70;7.10;;;15.70;55.40;;;;;;4982720;28;20469;-70
2022/03/06 10:43:41;;;;;;;8.73;6.57;;;16.60;54.80;;;;;;4972036;28;20461;-70
2022/03/06 10:46:09;;;;;;;9.57;6.53;;;15.70;52.30;;;;;;4982520;28;20465;-69
2022/03/06 10:48:36;;;;;;;9.83;7.07;;;15.40;53.10;;;;;;4972473;28;21033;-69
2022/03/06 10:51:05;;;;;;;10.67;6.77;;;15.90;52.50;;;;;;4977323;28;20488;-69
2022/03/06 10:53:33;;;;;;;11.80;6.73;;;15.60;52.40;;;;;;4978755;28;20469;-69
2022/03/06 10:56:08;;;;;;;14.40;7.90;;;14.80;51.70;;;;;;4977048;28;20469;-69
2022/03/06 10:58:37;;;;;;;8.80;7.07;;;14.30;53.20;;;;;;4971660;28;20554;-70
2022/03/06 11:01:04;;;;;;;15.57;6.97;;;15.10;53.80;;;;;;4977216;28;21138;-69
2022/03/06 11:03:33;;;;;;;11.30;7.47;;;14.50;52.30;;;;;;4964909;28;20501;-68
2022/03/06 11:06:01;;;;;;;10.60;4.67;;;13.60;53.30;;;;;;4972888;28;20606;-69
2022/03/06 11:08:29;;;;;;;10.27;7.60;;;13.00;52.70;;;;;;4963880;28;20496;-69
2022/03/06 11:10:57;;;;;;;10.50;7.40;;;12.70;54.80;;;;;;4971462;28;20450;-69
2022/03/06 11:13:24;;;;;;;8.27;5.87;;;12.00;55.10;;;;;;4982187;28;20827;-67
2022/03/06 11:15:51;;;;;;;10.90;6.87;;;11.90;55.70;;;;;;4988490;28;20944;-68
2022/03/06 11:18:19;;;;;;;10.47;7.87;;;11.10;56.70;;;;;;4977205;28;20833;-66
2022/03/06 11:20:46;;;;;;;7.40;4.17;;;10.80;58.20;;;;;;4977207;28;21208;-68
2022/03/06 11:23:27;;;;;;;9.73;5.80;;;10.00;57.60;;;;;;4978131;28;20537;-68
2022/03/06 11:26:34;;;;;;;8.57;5.33;;;9.90;59.50;;;;;;4980865;28;20488;-68
2022/03/06 11:29:23;;;;;;;13.23;6.97;;;10.20;59.00;;;;;;4965785;28;20463;-68
2022/03/06 11:31:53;;;;;;;8.07;5.83;;;9.80;57.90;;;;;;4970845;28;20462;-68
2022/03/06 11:34:25;;;;;;;9.67;6.30;;;9.40;58.70;;;;;;4977204;28;20536;-67
2022/03/06 11:36:53;;;;;;;12.70;7.00;;;9.60;58.80;;;;;;4969229;28;20497;-68
2022/03/06 11:39:45;;;;;;;4.23;3.77;;;9.70;58.30;;;;;;4982275;28;20454;-68
2022/03/06 11:42:52;;;;;;;13.20;6.03;;;9.50;58.80;;;;;;4980821;28;20435;-68
2022/03/06 11:45:48;;;;;;;9.23;5.33;;;9.40;59.00;;;;;;4980824;28;20465;-68
2022/03/06 11:48:28;;;;;;;7.53;5.70;;;9.60;57.90;;;;;;4980002;28;20504;-67
2022/03/06 11:51:17;;;;;;;8.70;4.30;;;10.00;55.90;;;;;;4985001;28;21099;-67
2022/03/06 11:53:52;;;;;;;9.00;5.53;;;9.80;56.00;;;;;;4978009;28;20447;-69
2022/03/06 11:56:42;;;;;;;6.77;4.80;;;9.50;56.60;;;;;;4981896;28;20755;-67
2022/03/06 11:59:11;;;;;;;9.27;6.23;;;9.40;57.10;;;;;;4976407;28;20834;-69
2022/03/06 12:01:40;;;;;;;6.07;4.60;;;9.30;57.90;;;;;;4970852;28;20521;-69
2022/03/06 12:04:10;;;;;;;6.27;5.50;;;9.80;57.60;;;;;;4974974;28;20528;-68
2022/03/06 12:06:39;;;;;;;9.90;5.47;;;10.80;56.40;;;;;;4972763;28;20460;-67
2022/03/06 12:09:11;;;;;;;14.87;7.50;;;13.00;55.00;;;;;;4974651;28;20846;-67
2022/03/06 12:11:42;;;;;;;13.00;7.97;;;14.50;52.20;;;;;;4971939;28;20466;-68
2022/03/06 12:14:18;;;;;;;7.87;5.90;;;14.70;50.20;;;;;;4979593;28;20500;-68
2022/03/06 12:17:21;;;;;;;8.33;6.20;;;13.50;51.10;;;;;;4984907;28;20485;-67
2022/03/06 12:20:15;;;;;;;8.27;5.50;;;12.10;52.30;;;;;;4946077;28;20650;-67
2022/03/06 12:22:47;;;;;;;7.67;5.77;;;10.90;53.90;;;;;;4971704;28;21194;-68
2022/03/06 12:25:19;;;;;;;8.57;6.20;;;10.80;55.50;;;;;;4972569;28;20557;-69
2022/03/06 12:28:20;;;;;;;8.40;6.17;;;11.60;55.80;;;;;;4969256;28;20604;-68
2022/03/06 12:30:49;;;;;;;8.83;5.20;;;12.20;53.20;;;;;;4965779;28;20780;-68
2022/03/06 12:33:39;;;;;;;6.57;5.63;;;11.20;53.00;;;;;;4984723;28;20543;-68
2022/03/06 12:36:11;;;;;;;9.93;5.33;;;10.60;52.50;;;;;;4985891;28;20436;-70
2022/03/06 12:38:38;;;;;;;7.50;4.37;;;10.40;54.00;;;;;;4977438;28;20454;-69
2022/03/06 12:41:07;;;;;;;10.20;6.20;;;10.50;54.10;;;;;;4968839;28;20940;-69
2022/03/06 12:43:34;;;;;;;6.10;4.70;;;10.30;53.90;;;;;;4979513;28;20454;-68
2022/03/06 12:46:02;;;;;;;8.20;5.60;;;10.20;53.90;;;;;;4982180;28;20527;-70
2022/03/06 12:48:32;;;;;;;7.60;5.53;;;10.20;54.90;;;;;;4979773;28;21494;-70
2022/03/06 12:50:59;;;;;;;9.50;5.40;;;10.60;55.70;;;;;;4969372;28;20481;-70
2022/03/06 12:53:26;;;;;;;12.57;6.50;;;10.80;55.20;;;;;;4981101;28;20967;-70
2022/03/06 12:55:59;;;;;;;10.33;4.37;;;10.30;54.30;;;;;;4982189;28;20566;-69
2022/03/06 12:58:38;;;;;;;5.93;4.83;;;9.80;55.30;;;;;;4981455;28;20480;-70